Elk Horn, Idaho
Current Conditions -  °F | °C
As of 5:47 PM on Friday 24 Oct 2014 (Local Time) from KSUN Reporting Station
Clear Clear  
Wind Chill: 61°   Ceiling: Unl
Heat Index: 61°   Visibility: 10mi
Dew Point: 30°   Wind: 7mph
Humidity: 31%   Direction: 150°SSE
Pressure: 30.11"   Gusts: NA
Location:  43.6966°N, 114.35°W
Report Text: KSUN 242347Z 15006KT 10SM SKC 16/M01 A3011
Loading
Personal Weather Stations






























Interactive Weather Map New forecast layout! Learn more

10-Day Weather Forecast

Advertisements
Track Severe Weather on mobile